createdAt,value
2022-08-25T00:00:14.454Z,2.60
2022-08-25T00:01:14.462Z,2.60
2022-08-25T00:02:14.497Z,2.60
2022-08-25T00:03:14.470Z,2.60
2022-08-25T00:04:14.571Z,2.60
2022-08-25T00:05:14.535Z,2.50
2022-08-25T00:06:14.479Z,2.60
2022-08-25T00:07:14.489Z,2.60
2022-08-25T00:08:14.487Z,2.50
2022-08-25T00:09:14.496Z,2.60
2022-08-25T00:10:14.498Z,2.40
2022-08-25T00:11:14.503Z,2.50
2022-08-25T00:12:14.506Z,2.70
2022-08-25T00:13:14.511Z,2.70
2022-08-25T00:14:14.515Z,2.70
2022-08-25T00:15:14.523Z,2.70
2022-08-25T00:16:14.591Z,2.60
2022-08-25T00:17:14.532Z,2.60
2022-08-25T00:18:19.589Z,2.70
2022-08-25T00:19:14.536Z,2.70
2022-08-25T00:20:14.542Z,2.70
2022-08-25T00:21:14.546Z,2.60
2022-08-25T00:22:14.549Z,2.70
2022-08-25T00:23:14.557Z,2.60
2022-08-25T00:24:14.560Z,2.50
2022-08-25T00:25:14.564Z,2.40
2022-08-25T00:26:14.567Z,2.80
2022-08-25T00:27:14.571Z,2.70
2022-08-25T00:28:14.575Z,2.40
2022-08-25T00:29:14.584Z,2.70
2022-08-25T00:30:14.587Z,2.60
2022-08-25T00:31:14.673Z,2.80
2022-08-25T00:32:14.599Z,2.60
2022-08-25T00:33:14.602Z,2.70
2022-08-25T00:34:14.600Z,2.60
2022-08-25T00:35:14.607Z,2.70
2022-08-25T00:36:14.617Z,2.60
2022-08-25T00:37:14.621Z,2.80
2022-08-25T00:38:14.617Z,2.60
2022-08-25T00:39:14.621Z,2.80
2022-08-25T00:40:14.703Z,2.70
2022-08-25T00:41:14.633Z,2.60
2022-08-25T00:42:16.225Z,2.70
2022-08-25T00:43:14.640Z,2.70
2022-08-25T00:44:14.646Z,2.70
2022-08-25T00:45:14.650Z,2.80
2022-08-25T00:46:14.706Z,2.50
2022-08-25T00:47:14.659Z,2.50
2022-08-25T00:48:14.660Z,2.90
2022-08-25T00:49:20.900Z,2.70
2022-08-25T00:50:14.667Z,2.70
2022-08-25T00:51:14.678Z,2.60
2022-08-25T00:52:14.677Z,2.60
2022-08-25T00:53:14.683Z,2.80
2022-08-25T00:54:14.683Z,2.70
2022-08-25T00:55:14.690Z,2.80
2022-08-25T00:56:14.693Z,2.80
2022-08-25T00:57:14.699Z,2.80
2022-08-25T00:58:14.714Z,2.70
2022-08-25T00:59:14.705Z,2.80
2022-08-25T01:00:14.707Z,2.60
2022-08-25T01:01:14.764Z,2.90
2022-08-25T01:02:14.768Z,2.80
2022-08-25T01:03:14.728Z,2.70
2022-08-25T01:04:14.722Z,2.80
2022-08-25T01:05:14.728Z,3.00
2022-08-25T01:06:14.730Z,2.80
2022-08-25T01:07:17.862Z,2.90
2022-08-25T01:08:16.264Z,2.90
2022-08-25T01:09:14.746Z,3.10
2022-08-25T01:10:14.744Z,3.10
2022-08-25T01:11:14.749Z,3.00
2022-08-25T01:12:14.752Z,2.90
2022-08-25T01:13:16.496Z,3.10
2022-08-25T01:14:14.758Z,2.90
2022-08-25T01:15:14.766Z,3.00
2022-08-25T01:16:14.821Z,3.20
2022-08-25T01:17:14.770Z,2.90
2022-08-25T01:18:14.773Z,2.70
2022-08-25T01:19:15.411Z,2.80
2022-08-25T01:20:14.786Z,2.90
2022-08-25T01:21:14.797Z,2.80
2022-08-25T01:22:14.791Z,2.90
2022-08-25T01:23:14.795Z,3.10
2022-08-25T01:24:14.795Z,2.90
2022-08-25T01:25:14.800Z,3.00
2022-08-25T01:26:14.803Z,3.00
2022-08-25T01:27:14.809Z,2.80
2022-08-25T01:28:14.812Z,2.80
2022-08-25T01:29:14.814Z,3.00
2022-08-25T01:30:14.815Z,3.10
2022-08-25T01:31:24.076Z,2.90
2022-08-25T01:32:14.831Z,3.00
2022-08-25T01:33:14.827Z,3.00
2022-08-25T01:34:14.827Z,3.00
2022-08-25T01:35:14.833Z,3.20
2022-08-25T01:36:14.836Z,3.00
2022-08-25T01:37:14.840Z,3.10
2022-08-25T01:38:14.840Z,3.20
2022-08-25T01:39:14.855Z,3.20
2022-08-25T01:40:14.924Z,3.30
2022-08-25T01:41:14.853Z,3.30
2022-08-25T01:42:14.863Z,3.30
2022-08-25T01:43:14.872Z,3.50
2022-08-25T01:44:16.108Z,3.20
2022-08-25T01:45:14.866Z,3.00
2022-08-25T01:46:14.922Z,3.40
2022-08-25T01:47:14.871Z,3.20
2022-08-25T01:48:14.870Z,3.20
2022-08-25T01:49:14.880Z,3.20
2022-08-25T01:50:14.876Z,3.30
2022-08-25T01:51:14.884Z,3.70
2022-08-25T01:52:14.885Z,3.10
2022-08-25T01:53:14.888Z,3.70
2022-08-25T01:54:14.891Z,3.60
2022-08-25T01:55:14.893Z,3.50
2022-08-25T01:56:14.896Z,3.20
2022-08-25T01:57:14.898Z,3.40
2022-08-25T01:58:14.900Z,3.40
2022-08-25T01:59:14.904Z,3.50
2022-08-25T02:00:14.907Z,3.50
2022-08-25T02:01:14.963Z,3.70
2022-08-25T02:02:14.971Z,3.40
2022-08-25T02:03:18.906Z,3.50
2022-08-25T02:04:14.917Z,3.50
2022-08-25T02:05:14.924Z,3.40
2022-08-25T02:06:14.922Z,3.40
2022-08-25T02:07:14.926Z,3.60
2022-08-25T02:08:14.929Z,3.70
2022-08-25T02:09:14.936Z,3.70
2022-08-25T02:10:14.938Z,3.70
2022-08-25T02:11:14.940Z,3.60
2022-08-25T02:12:14.943Z,3.40
2022-08-25T02:13:14.954Z,3.40
2022-08-25T02:14:14.948Z,3.60
2022-08-25T02:15:14.948Z,3.50
2022-08-25T02:16:15.040Z,3.60
2022-08-25T02:17:14.958Z,3.30
2022-08-25T02:18:14.961Z,3.70
2022-08-25T02:19:14.959Z,3.60
2022-08-25T02:20:14.965Z,3.70
2022-08-25T02:21:14.972Z,3.90
2022-08-25T02:22:14.969Z,3.40
2022-08-25T02:23:14.971Z,3.60
2022-08-25T02:24:14.982Z,3.80
2022-08-25T02:25:14.976Z,3.60
2022-08-25T02:26:14.983Z,3.60
2022-08-25T02:27:14.983Z,3.40
2022-08-25T02:28:14.983Z,3.70
2022-08-25T02:29:14.987Z,3.80
2022-08-25T02:30:14.992Z,3.90
2022-08-25T02:31:15.073Z,4.00
2022-08-25T02:32:14.995Z,3.90
2022-08-25T02:33:14.997Z,3.80
2022-08-25T02:34:15.002Z,3.60
2022-08-25T02:35:15.002Z,3.60
2022-08-25T02:36:15.007Z,3.70
2022-08-25T02:37:15.009Z,3.80
2022-08-25T02:38:15.010Z,3.90
2022-08-25T02:39:15.010Z,3.40
2022-08-25T02:40:15.053Z,3.70
2022-08-25T02:41:15.018Z,3.70
2022-08-25T02:42:15.030Z,3.60
2022-08-25T02:43:15.027Z,3.70
2022-08-25T02:44:15.034Z,3.70
2022-08-25T02:45:15.026Z,3.70
2022-08-25T02:46:15.091Z,3.80
2022-08-25T02:47:15.034Z,4.00
2022-08-25T02:48:15.035Z,3.80
2022-08-25T02:49:15.038Z,3.80
2022-08-25T02:50:15.039Z,3.60
2022-08-25T02:51:15.041Z,3.50
2022-08-25T02:52:15.049Z,3.80
2022-08-25T02:53:15.048Z,3.90
2022-08-25T02:54:15.049Z,3.80
2022-08-25T02:55:15.050Z,3.60
2022-08-25T02:56:15.055Z,3.70
2022-08-25T02:57:15.056Z,3.70
2022-08-25T02:58:15.058Z,3.90
2022-08-25T02:59:15.060Z,4.00
2022-08-25T03:00:15.071Z,4.20
2022-08-25T03:01:15.176Z,3.80
2022-08-25T03:02:15.098Z,3.70
2022-08-25T03:03:15.069Z,4.10
2022-08-25T03:04:15.075Z,3.90
2022-08-25T03:05:15.160Z,3.90
2022-08-25T03:06:15.078Z,3.90
2022-08-25T03:07:15.077Z,4.00
2022-08-25T03:08:15.082Z,4.00
2022-08-25T03:09:15.087Z,3.90
2022-08-25T03:10:15.085Z,4.00
2022-08-25T03:11:15.090Z,4.00
2022-08-25T03:12:15.442Z,4.00
2022-08-25T03:13:15.094Z,3.70
2022-08-25T03:14:15.092Z,3.70
2022-08-25T03:15:15.114Z,3.60
2022-08-25T03:16:15.190Z,3.80
2022-08-25T03:17:15.099Z,3.70
2022-08-25T03:18:15.101Z,3.80
2022-08-25T03:19:15.103Z,4.00
2022-08-25T03:20:15.115Z,3.90
2022-08-25T03:21:15.778Z,4.00
2022-08-25T03:22:15.112Z,3.90
2022-08-25T03:23:15.114Z,3.70
2022-08-25T03:24:15.114Z,3.90
2022-08-25T03:25:15.121Z,4.00
2022-08-25T03:26:15.138Z,3.90
2022-08-25T03:27:15.123Z,3.80
2022-08-25T03:28:15.127Z,3.90
2022-08-25T03:29:15.127Z,3.60
2022-08-25T03:30:15.131Z,3.90
2022-08-25T03:31:15.162Z,3.70
2022-08-25T03:32:15.142Z,3.80
2022-08-25T03:33:15.134Z,3.90
2022-08-25T03:34:15.140Z,3.80
2022-08-25T03:35:15.141Z,3.90
2022-08-25T03:36:15.140Z,4.10
2022-08-25T03:37:15.143Z,3.70
2022-08-25T03:38:15.148Z,4.00
2022-08-25T03:39:15.151Z,3.70
2022-08-25T03:40:16.427Z,3.70
2022-08-25T03:41:15.156Z,4.00
2022-08-25T03:42:15.152Z,4.20
2022-08-25T03:43:15.154Z,3.70
2022-08-25T03:44:15.157Z,3.70
2022-08-25T03:45:15.159Z,3.80
2022-08-25T03:46:15.241Z,3.80
2022-08-25T03:47:15.162Z,4.20
2022-08-25T03:48:15.170Z,4.00
2022-08-25T03:49:15.167Z,3.70
2022-08-25T03:50:15.172Z,3.70
2022-08-25T03:51:15.170Z,3.90
2022-08-25T03:52:15.175Z,3.80
2022-08-25T03:53:15.176Z,3.80
2022-08-25T03:54:15.175Z,3.90
2022-08-25T03:55:15.183Z,4.20
2022-08-25T03:56:15.186Z,4.10
2022-08-25T03:57:15.185Z,4.20
2022-08-25T03:58:15.213Z,4.00
2022-08-25T03:59:15.186Z,3.90
2022-08-25T04:00:15.191Z,4.10
2022-08-25T04:01:15.286Z,4.20
2022-08-25T04:02:15.227Z,4.00
2022-08-25T04:03:15.194Z,4.40
2022-08-25T04:04:15.195Z,4.00
2022-08-25T04:05:15.899Z,4.10
2022-08-25T04:06:15.201Z,4.30
2022-08-25T04:07:15.212Z,4.20
2022-08-25T04:08:15.206Z,4.30
2022-08-25T04:09:15.208Z,4.40
2022-08-25T04:10:15.208Z,3.90
2022-08-25T04:11:15.209Z,4.00
2022-08-25T04:12:15.766Z,4.10
2022-08-25T04:13:15.213Z,4.00
2022-08-25T04:14:16.487Z,3.90
2022-08-25T04:15:15.224Z,4.10
2022-08-25T04:16:15.267Z,4.00
2022-08-25T04:17:15.221Z,3.90
2022-08-25T04:18:15.222Z,4.00
2022-08-25T04:19:15.224Z,3.90
2022-08-25T04:20:15.225Z,4.20
2022-08-25T04:21:15.227Z,3.90
2022-08-25T04:22:15.231Z,4.10
2022-08-25T04:23:15.239Z,4.10
2022-08-25T04:24:15.235Z,4.10
2022-08-25T04:25:15.233Z,4.30
2022-08-25T04:26:15.240Z,4.50
2022-08-25T04:27:15.239Z,4.60
2022-08-25T04:28:15.240Z,4.50
2022-08-25T04:29:15.240Z,4.30
2022-08-25T04:30:15.243Z,4.40
2022-08-25T04:31:15.383Z,4.60
2022-08-25T04:32:15.245Z,4.80
2022-08-25T04:33:15.249Z,4.60
2022-08-25T04:34:30.555Z,4.40
2022-08-25T04:35:15.250Z,4.60
2022-08-25T04:36:15.255Z,4.50
2022-08-25T04:37:15.256Z,4.60
2022-08-25T04:38:15.257Z,4.70
2022-08-25T04:39:15.257Z,4.60
2022-08-25T04:40:15.298Z,5.10
2022-08-25T04:41:15.261Z,4.80
2022-08-25T04:42:15.265Z,4.80
2022-08-25T04:43:15.265Z,5.00
2022-08-25T04:44:15.268Z,5.10
2022-08-25T04:45:15.268Z,5.00
2022-08-25T04:46:20.113Z,5.00
2022-08-25T04:47:15.273Z,4.90
2022-08-25T04:48:15.275Z,5.20
2022-08-25T04:49:15.274Z,4.90
2022-08-25T04:50:15.274Z,5.10
2022-08-25T04:51:15.280Z,5.30
2022-08-25T04:52:15.279Z,5.00
2022-08-25T04:53:15.284Z,5.00
2022-08-25T04:54:15.284Z,4.80
2022-08-25T04:55:15.286Z,5.20
2022-08-25T04:56:15.286Z,5.10
2022-08-25T04:57:15.330Z,4.90
2022-08-25T04:58:16.700Z,5.30
2022-08-25T04:59:15.291Z,5.10
2022-08-25T05:00:15.309Z,4.60
2022-08-25T05:01:15.318Z,4.70
2022-08-25T05:02:15.296Z,5.10
2022-08-25T05:03:15.300Z,5.30
2022-08-25T05:04:27.604Z,4.80
2022-08-25T05:05:15.302Z,5.00
2022-08-25T05:06:16.178Z,5.00
2022-08-25T05:07:15.306Z,5.00
2022-08-25T05:08:15.315Z,5.00
2022-08-25T05:09:15.308Z,5.10
2022-08-25T05:10:15.318Z,5.00
2022-08-25T05:11:15.877Z,5.30
2022-08-25T05:12:15.514Z,5.40
2022-08-25T05:13:15.319Z,5.20
2022-08-25T05:14:15.322Z,5.40
2022-08-25T05:15:15.325Z,4.90
2022-08-25T05:16:15.352Z,5.70
2022-08-25T05:17:15.317Z,5.40
2022-08-25T05:18:15.322Z,5.30
2022-08-25T05:19:15.321Z,5.40
2022-08-25T05:20:15.322Z,5.60
2022-08-25T05:21:15.324Z,5.70
2022-08-25T05:22:15.325Z,5.30
2022-08-25T05:23:15.329Z,6.00
2022-08-25T05:24:15.329Z,5.80
2022-08-25T05:25:15.335Z,5.80
2022-08-25T05:26:19.559Z,5.30
2022-08-25T05:27:15.333Z,5.60
2022-08-25T05:28:15.344Z,5.60
2022-08-25T05:29:15.338Z,5.50
2022-08-25T05:30:15.341Z,5.80
2022-08-25T05:31:15.422Z,5.70
2022-08-25T05:32:15.344Z,5.80
2022-08-25T05:33:15.346Z,5.70
2022-08-25T05:34:15.346Z,5.90
2022-08-25T05:35:15.352Z,5.90
2022-08-25T05:36:15.350Z,5.40
2022-08-25T05:37:15.349Z,5.70
2022-08-25T05:38:15.724Z,5.50
2022-08-25T05:39:15.354Z,5.70
2022-08-25T05:40:15.494Z,5.60
2022-08-25T05:41:15.358Z,5.90
2022-08-25T05:42:15.363Z,6.20
2022-08-25T05:43:15.359Z,6.00
2022-08-25T05:44:19.118Z,6.20
2022-08-25T05:45:20.276Z,6.60
2022-08-25T05:46:15.467Z,6.20
2022-08-25T05:47:15.367Z,6.20
2022-08-25T05:48:15.370Z,6.30
2022-08-25T05:49:15.370Z,6.30
2022-08-25T05:50:15.376Z,6.10
2022-08-25T05:51:15.376Z,6.20
2022-08-25T05:52:18.209Z,6.50
2022-08-25T05:53:15.380Z,6.30
2022-08-25T05:54:15.384Z,6.10
2022-08-25T05:55:15.382Z,6.20
2022-08-25T05:56:15.387Z,6.40
2022-08-25T05:57:15.394Z,6.40
2022-08-25T05:58:15.398Z,5.70
2022-08-25T05:59:15.393Z,6.10
2022-08-25T06:00:15.396Z,5.70
2022-08-25T06:01:15.464Z,6.00
2022-08-25T06:02:15.396Z,5.70
2022-08-25T06:03:15.464Z,5.80
2022-08-25T06:04:15.409Z,5.80
2022-08-25T06:05:15.399Z,5.80
2022-08-25T06:06:15.403Z,5.90
2022-08-25T06:07:15.409Z,6.50
2022-08-25T06:08:15.409Z,6.30
2022-08-25T06:09:15.408Z,6.40
2022-08-25T06:10:15.410Z,6.20
2022-08-25T06:11:15.411Z,6.10
2022-08-25T06:12:15.414Z,5.90
2022-08-25T06:13:15.415Z,5.90
2022-08-25T06:14:15.416Z,6.20
2022-08-25T06:15:15.420Z,6.00
2022-08-25T06:16:15.519Z,5.80
2022-08-25T06:17:15.424Z,6.00
2022-08-25T06:18:15.424Z,5.70
2022-08-25T06:19:15.430Z,6.40
2022-08-25T06:20:15.436Z,6.10
2022-08-25T06:21:15.431Z,5.70
2022-08-25T06:22:15.436Z,5.40
2022-08-25T06:23:15.440Z,5.10
2022-08-25T06:24:15.897Z,5.70
2022-08-25T06:25:15.445Z,5.70
2022-08-25T06:26:20.880Z,5.80
2022-08-25T06:27:15.447Z,5.60
2022-08-25T06:28:15.451Z,5.20
2022-08-25T06:29:15.473Z,5.40
2022-08-25T06:30:16.183Z,5.60
2022-08-25T06:31:15.511Z,5.50
2022-08-25T06:32:15.454Z,5.10
2022-08-25T06:33:15.461Z,4.90
2022-08-25T06:34:15.458Z,5.30
2022-08-25T06:35:15.464Z,5.90
2022-08-25T06:36:15.467Z,5.70
2022-08-25T06:37:15.473Z,5.50
2022-08-25T06:38:15.475Z,5.10
2022-08-25T06:39:15.479Z,4.90
2022-08-25T06:40:15.566Z,5.00
2022-08-25T06:41:15.479Z,4.70
2022-08-25T06:42:15.478Z,4.80
2022-08-25T06:43:15.482Z,5.00
2022-08-25T06:44:15.484Z,5.50
2022-08-25T06:45:15.488Z,4.80
2022-08-25T06:46:15.683Z,5.10
2022-08-25T06:47:15.529Z,5.00
2022-08-25T06:48:15.490Z,4.70
2022-08-25T06:49:15.500Z,4.60
2022-08-25T06:50:15.496Z,4.60
2022-08-25T06:51:15.503Z,4.60
2022-08-25T06:52:15.506Z,4.60
2022-08-25T06:53:15.508Z,5.00
2022-08-25T06:54:15.507Z,4.70
2022-08-25T06:55:15.508Z,4.40
2022-08-25T06:56:15.517Z,4.40
2022-08-25T06:57:15.515Z,4.60
2022-08-25T06:58:15.520Z,4.60
2022-08-25T06:59:15.519Z,4.60
2022-08-25T07:00:15.525Z,5.00
2022-08-25T07:01:20.185Z,4.70
2022-08-25T07:02:15.567Z,4.70
2022-08-25T07:03:15.574Z,4.70
2022-08-25T07:04:15.532Z,4.30
2022-08-25T07:05:27.296Z,4.80
2022-08-25T07:06:18.210Z,4.70
2022-08-25T07:07:15.542Z,4.60
2022-08-25T07:08:15.542Z,5.00
2022-08-25T07:09:15.546Z,4.90
2022-08-25T07:10:15.548Z,4.90
2022-08-25T07:11:16.369Z,4.50
2022-08-25T07:12:16.004Z,4.40
2022-08-25T07:13:15.558Z,4.40
2022-08-25T07:14:15.557Z,4.60
2022-08-25T07:15:20.449Z,4.70
2022-08-25T07:16:15.688Z,4.60
2022-08-25T07:17:15.577Z,4.80
2022-08-25T07:18:15.578Z,4.30
2022-08-25T07:19:15.579Z,4.70
2022-08-25T07:20:15.616Z,4.60
2022-08-25T07:21:15.579Z,4.80
2022-08-25T07:22:15.587Z,4.40
2022-08-25T07:23:15.587Z,4.50
2022-08-25T07:24:15.590Z,4.50
2022-08-25T07:25:15.701Z,4.80
2022-08-25T07:26:36.252Z,4.60
2022-08-25T07:27:15.601Z,4.60
2022-08-25T07:28:15.602Z,4.60
2022-08-25T07:29:15.607Z,4.40
2022-08-25T07:30:15.622Z,4.80
2022-08-25T07:31:15.660Z,4.60
2022-08-25T07:32:15.611Z,5.00
2022-08-25T07:33:15.627Z,4.50
2022-08-25T07:34:16.392Z,4.40
2022-08-25T07:35:15.666Z,4.40
2022-08-25T07:36:15.625Z,4.60
2022-08-25T07:37:27.535Z,4.60
2022-08-25T07:38:19.754Z,4.60
2022-08-25T07:39:15.636Z,4.40
2022-08-25T07:40:15.698Z,4.40
2022-08-25T07:41:15.644Z,4.60
2022-08-25T07:42:15.677Z,4.90
2022-08-25T07:43:15.652Z,4.60
2022-08-25T07:44:15.657Z,4.10
2022-08-25T07:45:20.474Z,4.60
2022-08-25T07:46:15.731Z,5.00
2022-08-25T07:47:15.666Z,4.80
2022-08-25T07:48:15.666Z,4.40
2022-08-25T07:49:16.696Z,4.40
2022-08-25T07:50:15.671Z,4.70
2022-08-25T07:51:15.723Z,4.60
2022-08-25T07:52:15.680Z,4.70
2022-08-25T07:53:15.683Z,4.60
2022-08-25T07:54:15.685Z,4.70
2022-08-25T07:55:17.907Z,4.60
2022-08-25T07:56:15.693Z,4.60
2022-08-25T07:57:15.698Z,4.40
2022-08-25T07:58:15.704Z,4.80
2022-08-25T07:59:15.708Z,4.30
2022-08-25T08:00:15.741Z,4.60
2022-08-25T08:01:15.724Z,4.60
2022-08-25T08:02:18.909Z,4.50
2022-08-25T08:03:35.247Z,4.50
2022-08-25T08:04:15.727Z,4.90
2022-08-25T08:05:15.728Z,4.70
2022-08-25T08:06:15.731Z,4.80
2022-08-25T08:07:15.736Z,4.60
2022-08-25T08:08:15.746Z,4.40
2022-08-25T08:09:15.746Z,4.40
2022-08-25T08:11:15.755Z,4.60
2022-08-25T08:12:15.754Z,4.60
2022-08-25T08:13:18.418Z,5.00
2022-08-25T08:14:15.764Z,4.60
2022-08-25T08:15:15.774Z,4.60
2022-08-25T08:16:15.852Z,4.80
2022-08-25T08:17:15.777Z,4.50
2022-08-25T08:18:15.784Z,4.70
2022-08-25T08:19:15.789Z,4.40
2022-08-25T08:20:15.797Z,4.60
2022-08-25T08:21:19.149Z,4.50
2022-08-25T08:22:15.803Z,4.30
2022-08-25T08:23:15.809Z,4.60
2022-08-25T08:24:40.679Z,4.40
2022-08-25T08:25:18.723Z,4.40
2022-08-25T08:26:15.829Z,4.70
2022-08-25T08:27:15.840Z,4.30
2022-08-25T08:28:15.852Z,4.50
2022-08-25T08:29:15.846Z,4.30
2022-08-25T08:30:15.859Z,4.10
2022-08-25T08:31:15.919Z,4.60
2022-08-25T08:32:15.870Z,4.50
2022-08-25T08:33:15.883Z,4.60
2022-08-25T08:34:15.877Z,4.50
2022-08-25T08:35:15.887Z,4.30
2022-08-25T08:36:15.891Z,4.60
2022-08-25T08:37:16.731Z,4.50
2022-08-25T08:38:20.869Z,4.30
2022-08-25T08:39:15.908Z,4.20
2022-08-25T08:40:15.962Z,4.50
2022-08-25T08:41:15.926Z,4.40
2022-08-25T08:42:16.902Z,3.90
2022-08-25T08:43:18.363Z,4.20
2022-08-25T08:44:15.942Z,4.20
2022-08-25T08:45:15.953Z,4.30
2022-08-25T08:46:16.052Z,4.40
2022-08-25T08:47:15.960Z,4.10
2022-08-25T08:48:15.968Z,4.30
2022-08-25T08:49:15.974Z,4.30
2022-08-25T08:50:21.642Z,4.40
2022-08-25T08:51:15.982Z,4.20
2022-08-25T08:52:15.990Z,4.10
2022-08-25T08:53:15.997Z,4.20
2022-08-25T08:54:16.671Z,4.30
2022-08-25T08:55:16.012Z,4.50
2022-08-25T08:56:16.050Z,4.40
2022-08-25T08:57:16.024Z,4.40
2022-08-25T08:58:16.024Z,4.10
2022-08-25T08:59:16.042Z,4.20
2022-08-25T09:00:16.038Z,3.90
2022-08-25T09:01:16.078Z,4.10
2022-08-25T09:02:16.047Z,3.80
2022-08-25T09:03:16.077Z,4.30
2022-08-25T09:04:16.059Z,4.20
2022-08-25T09:05:16.069Z,4.00
2022-08-25T09:06:16.070Z,4.20
2022-08-25T09:07:16.184Z,4.40
2022-08-25T09:08:20.191Z,4.10
2022-08-25T09:09:16.101Z,4.20
2022-08-25T09:10:16.217Z,4.30
2022-08-25T09:11:16.157Z,4.30
2022-08-25T09:12:18.091Z,4.00
2022-08-25T09:13:16.113Z,4.30
2022-08-25T09:14:16.114Z,4.20
2022-08-25T09:15:16.121Z,4.00
2022-08-25T09:16:20.652Z,4.00
2022-08-25T09:17:16.133Z,4.10
2022-08-25T09:18:16.141Z,4.00
2022-08-25T09:19:21.322Z,4.00
2022-08-25T09:20:18.719Z,4.30
2022-08-25T09:21:16.160Z,4.00
2022-08-25T09:22:33.829Z,4.00
2022-08-25T09:23:16.169Z,4.20
2022-08-25T09:24:16.172Z,3.90
2022-08-25T09:25:21.966Z,4.20
2022-08-25T09:26:16.180Z,3.80
2022-08-25T09:27:16.187Z,4.20
2022-08-25T09:28:16.197Z,4.10
2022-08-25T09:29:17.102Z,4.10
2022-08-25T09:30:16.198Z,3.70
2022-08-25T09:31:16.283Z,4.00
2022-08-25T09:32:16.211Z,3.70
2022-08-25T09:33:16.254Z,4.00
2022-08-25T09:34:16.240Z,4.30
2022-08-25T09:35:16.230Z,3.80
2022-08-25T09:36:16.237Z,4.10
2022-08-25T09:37:16.243Z,4.00
2022-08-25T09:38:16.247Z,4.10
2022-08-25T09:39:16.254Z,4.00
2022-08-25T09:40:16.285Z,4.40
2022-08-25T09:41:16.262Z,4.00
2022-08-25T09:42:16.261Z,3.90
2022-08-25T09:43:16.271Z,3.90
2022-08-25T09:44:16.273Z,3.70
2022-08-25T09:45:16.281Z,3.80
2022-08-25T09:46:16.321Z,3.80
2022-08-25T09:47:16.292Z,3.80
2022-08-25T09:48:16.294Z,3.90
2022-08-25T09:49:16.301Z,3.80
2022-08-25T09:50:18.589Z,4.10
2022-08-25T09:51:16.320Z,3.80
2022-08-25T09:52:16.318Z,3.60
2022-08-25T09:53:18.657Z,3.60
2022-08-25T09:54:16.323Z,3.80
2022-08-25T09:55:16.333Z,3.60
2022-08-25T09:56:16.336Z,3.90
2022-08-25T09:57:16.342Z,4.10
2022-08-25T09:58:16.346Z,3.80
2022-08-25T09:59:16.354Z,3.70
2022-08-25T10:00:16.358Z,3.90
2022-08-25T10:01:16.442Z,3.90
2022-08-25T10:02:16.369Z,3.60
2022-08-25T10:03:16.375Z,3.60
2022-08-25T10:04:20.784Z,3.30
2022-08-25T10:05:16.483Z,3.60
2022-08-25T10:06:16.387Z,3.50
2022-08-25T10:07:16.396Z,3.60
2022-08-25T10:08:16.412Z,3.70
2022-08-25T10:09:16.403Z,3.60
2022-08-25T10:10:16.407Z,3.50
2022-08-25T10:11:16.414Z,3.90
2022-08-25T10:12:16.418Z,3.80
2022-08-25T10:13:16.429Z,3.80
2022-08-25T10:14:16.438Z,3.70
2022-08-25T10:15:16.438Z,4.00
2022-08-25T10:16:20.286Z,3.70
2022-08-25T10:17:16.450Z,3.70
2022-08-25T10:18:16.450Z,3.90
2022-08-25T10:19:16.458Z,3.80
2022-08-25T10:20:16.472Z,3.70
2022-08-25T10:21:16.467Z,3.60
2022-08-25T10:22:16.471Z,3.50
2022-08-25T10:23:16.477Z,3.60
2022-08-25T10:24:16.482Z,3.50
2022-08-25T10:25:16.491Z,3.50
2022-08-25T10:26:16.491Z,3.50
2022-08-25T10:27:16.509Z,3.90
2022-08-25T10:28:16.505Z,3.50
2022-08-25T10:29:16.512Z,3.80
2022-08-25T10:30:16.515Z,3.70
2022-08-25T10:31:16.631Z,3.70
2022-08-25T10:32:16.523Z,3.70
2022-08-25T10:33:17.584Z,3.70
2022-08-25T10:34:16.535Z,3.90
2022-08-25T10:35:16.694Z,4.20
2022-08-25T10:36:16.548Z,4.20
2022-08-25T10:37:16.554Z,3.80
2022-08-25T10:38:21.481Z,4.00
2022-08-25T10:39:34.309Z,3.80
2022-08-25T10:40:17.078Z,4.20
2022-08-25T10:41:16.572Z,4.10
2022-08-25T10:42:16.586Z,3.90
2022-08-25T10:43:16.583Z,4.10
2022-08-25T10:44:16.715Z,4.10
2022-08-25T10:45:18.186Z,4.00
2022-08-25T10:46:16.620Z,4.20
2022-08-25T10:47:16.618Z,4.00
2022-08-25T10:48:16.611Z,3.70
2022-08-25T10:49:16.616Z,3.70
2022-08-25T10:50:16.622Z,3.70
2022-08-25T10:51:20.551Z,4.00
2022-08-25T10:52:16.633Z,3.70
2022-08-25T10:53:16.951Z,3.80
2022-08-25T10:54:16.643Z,3.60
2022-08-25T10:55:16.650Z,3.90
2022-08-25T10:56:16.655Z,3.50
2022-08-25T10:57:16.656Z,3.90
2022-08-25T10:58:16.660Z,3.80
2022-08-25T10:59:16.670Z,3.50
2022-08-25T11:00:16.674Z,3.90
2022-08-25T11:01:16.722Z,3.60
2022-08-25T11:02:16.689Z,3.70
2022-08-25T11:03:16.688Z,3.70
2022-08-25T11:04:16.693Z,3.90
2022-08-25T11:05:16.699Z,3.70
2022-08-25T11:06:16.711Z,3.70
2022-08-25T11:07:16.708Z,3.90
2022-08-25T11:08:16.716Z,3.50
2022-08-25T11:09:16.721Z,3.90
2022-08-25T11:10:16.728Z,3.60
2022-08-25T11:11:16.730Z,3.60
2022-08-25T11:12:16.739Z,3.60
2022-08-25T11:13:16.747Z,3.80
2022-08-25T11:14:16.748Z,3.30
2022-08-25T11:15:16.761Z,3.30
2022-08-25T11:16:19.129Z,3.50
2022-08-25T11:17:16.989Z,3.60
2022-08-25T11:18:16.768Z,3.40
2022-08-25T11:19:16.776Z,3.50
2022-08-25T11:20:20.542Z,3.50
2022-08-25T11:21:16.790Z,3.70
2022-08-25T11:22:19.253Z,3.60
2022-08-25T11:23:16.793Z,3.70
2022-08-25T11:24:16.803Z,4.00
2022-08-25T11:25:16.813Z,3.70
2022-08-25T11:26:16.830Z,3.70
2022-08-25T11:27:17.420Z,3.70
2022-08-25T11:28:16.831Z,3.90
2022-08-25T11:29:16.830Z,3.90
2022-08-25T11:30:16.833Z,3.80
2022-08-25T11:31:16.877Z,3.70
2022-08-25T11:32:16.846Z,3.60
2022-08-25T11:33:16.848Z,4.20
2022-08-25T11:34:19.483Z,3.90
2022-08-25T11:35:16.864Z,3.70
2022-08-25T11:36:16.868Z,3.90
2022-08-25T11:37:16.873Z,3.50
2022-08-25T11:38:16.878Z,3.60
2022-08-25T11:39:16.886Z,3.50
2022-08-25T11:40:17.148Z,3.80
2022-08-25T11:41:16.901Z,3.50
2022-08-25T11:42:16.902Z,3.60
2022-08-25T11:43:16.904Z,3.60
2022-08-25T11:44:16.908Z,3.60
2022-08-25T11:45:16.914Z,3.50
2022-08-25T11:46:16.964Z,3.70
2022-08-25T11:47:21.134Z,3.50
2022-08-25T11:48:16.947Z,3.60
2022-08-25T11:49:16.940Z,3.50
2022-08-25T11:50:16.944Z,3.30
2022-08-25T11:51:16.949Z,3.40
2022-08-25T11:52:16.956Z,3.70
2022-08-25T11:53:16.957Z,3.50
2022-08-25T11:54:16.963Z,3.70
2022-08-25T11:55:16.970Z,3.90
2022-08-25T11:56:16.972Z,5.00
2022-08-25T11:57:16.980Z,3.90
2022-08-25T11:58:16.985Z,3.50
2022-08-25T11:59:16.990Z,4.10
2022-08-25T12:00:16.996Z,8.40
2022-08-25T12:01:17.003Z,4.80
2022-08-25T12:02:17.013Z,4.30
2022-08-25T12:03:17.023Z,3.90
2022-08-25T12:04:17.081Z,3.80
2022-08-25T12:05:17.192Z,4.00
2022-08-25T12:06:17.033Z,3.60
2022-08-25T12:07:17.034Z,4.20
2022-08-25T12:08:17.039Z,3.70
2022-08-25T12:09:17.045Z,6.00
2022-08-25T12:10:17.051Z,5.30
2022-08-25T12:11:17.056Z,4.20
2022-08-25T12:12:17.062Z,3.80
2022-08-25T12:13:17.067Z,8.70
2022-08-25T12:14:17.070Z,4.30
2022-08-25T12:15:17.081Z,3.80
2022-08-25T12:16:17.135Z,3.70
2022-08-25T12:17:17.089Z,4.20
2022-08-25T12:18:18.743Z,5.20
2022-08-25T12:19:17.113Z,4.40
2022-08-25T12:20:17.108Z,3.70
2022-08-25T12:21:17.113Z,3.70
2022-08-25T12:22:17.115Z,3.90
2022-08-25T12:23:17.123Z,4.00
2022-08-25T12:24:17.132Z,3.60
2022-08-25T12:25:17.136Z,4.00
2022-08-25T12:26:17.139Z,4.00
2022-08-25T12:27:17.143Z,4.90
2022-08-25T12:28:17.156Z,20.40
2022-08-25T12:29:17.168Z,17.10
2022-08-25T12:30:20.671Z,5.00
2022-08-25T12:31:17.273Z,4.30
2022-08-25T12:32:17.174Z,3.60
2022-08-25T12:33:17.180Z,3.50
2022-08-25T12:34:17.183Z,3.50
2022-08-25T12:35:17.263Z,13.90
2022-08-25T12:36:17.194Z,7.70
2022-08-25T12:37:17.207Z,4.80
2022-08-25T12:38:17.206Z,6.60
2022-08-25T12:39:17.210Z,6.60
2022-08-25T12:40:17.367Z,4.40
2022-08-25T12:41:17.226Z,3.90
2022-08-25T12:42:19.036Z,4.10
2022-08-25T12:43:19.594Z,4.00
2022-08-25T12:44:17.242Z,4.40
2022-08-25T12:45:17.245Z,4.40
2022-08-25T12:46:17.317Z,3.80
2022-08-25T12:47:17.275Z,4.60
2022-08-25T12:48:17.267Z,4.80
2022-08-25T12:49:17.268Z,4.20
2022-08-25T12:50:17.275Z,4.00
2022-08-25T12:51:17.276Z,4.20
2022-08-25T12:52:17.283Z,3.90
2022-08-25T12:53:17.289Z,4.00
2022-08-25T12:54:22.275Z,4.20
2022-08-25T12:55:17.302Z,5.50
2022-08-25T12:56:17.345Z,4.00
2022-08-25T12:57:17.309Z,7.30
2022-08-25T12:58:18.009Z,4.70
2022-08-25T12:59:18.186Z,4.30
2022-08-25T13:00:18.411Z,6.50
2022-08-25T13:01:17.594Z,5.10
2022-08-25T13:02:17.475Z,3.80
2022-08-25T13:03:17.487Z,6.60
2022-08-25T13:04:17.352Z,4.10
2022-08-25T13:05:17.356Z,4.00
2022-08-25T13:06:17.361Z,4.00
2022-08-25T13:07:17.364Z,3.70
2022-08-25T13:08:17.373Z,4.00
2022-08-25T13:09:17.382Z,4.20
2022-08-25T13:10:17.381Z,4.40
2022-08-25T13:11:17.389Z,6.40
2022-08-25T13:12:17.394Z,4.40
2022-08-25T13:13:17.400Z,4.90
2022-08-25T13:14:17.479Z,3.80
2022-08-25T13:15:17.412Z,4.80
2022-08-25T13:16:17.464Z,4.50
2022-08-25T13:17:17.422Z,4.20
2022-08-25T13:18:17.426Z,3.70
2022-08-25T13:19:17.432Z,3.80